sensor_id;sensor_type;location;lat;lon;timestamp;P1;durP1;ratioP1;P2;durP2;ratioP2
12892;SDS011;6514;48.606;9.222;2022-07-06T00:00:12;2.67;;;1.63;;
12892;SDS011;6514;48.606;9.222;2022-07-06T00:02:39;4.27;;;1.90;;
12892;SDS011;6514;48.606;9.222;2022-07-06T00:05:07;2.73;;;2.00;;
12892;SDS011;6514;48.606;9.222;2022-07-06T00:07:34;4.13;;;2.37;;
12892;SDS011;6514;48.606;9.222;2022-07-06T00:10:02;2.27;;;2.07;;
12892;SDS011;6514;48.606;9.222;2022-07-06T00:12:29;3.77;;;2.37;;
12892;SDS011;6514;48.606;9.222;2022-07-06T00:14:57;4.90;;;2.60;;
12892;SDS011;6514;48.606;9.222;2022-07-06T00:17:25;3.07;;;2.13;;
12892;SDS011;6514;48.606;9.222;2022-07-06T00:19:52;3.90;;;2.57;;
12892;SDS011;6514;48.606;9.222;2022-07-06T00:22:19;2.77;;;2.00;;
12892;SDS011;6514;48.606;9.222;2022-07-06T00:24:46;3.60;;;2.30;;
12892;SDS011;6514;48.606;9.222;2022-07-06T00:27:13;2.27;;;2.07;;
12892;SDS011;6514;48.606;9.222;2022-07-06T00:29:41;2.73;;;2.40;;
12892;SDS011;6514;48.606;9.222;2022-07-06T00:32:10;3.30;;;2.47;;
12892;SDS011;6514;48.606;9.222;2022-07-06T00:34:37;3.27;;;2.67;;
12892;SDS011;6514;48.606;9.222;2022-07-06T00:37:05;2.80;;;2.47;;
12892;SDS011;6514;48.606;9.222;2022-07-06T00:39:33;3.50;;;2.20;;
12892;SDS011;6514;48.606;9.222;2022-07-06T00:42:00;2.83;;;2.23;;
12892;SDS011;6514;48.606;9.222;2022-07-06T00:44:27;3.73;;;2.40;;
12892;SDS011;6514;48.606;9.222;2022-07-06T00:46:56;3.27;;;3.00;;
12892;SDS011;6514;48.606;9.222;2022-07-06T00:49:24;4.30;;;2.73;;
12892;SDS011;6514;48.606;9.222;2022-07-06T00:52:09;4.07;;;2.60;;
12892;SDS011;6514;48.606;9.222;2022-07-06T00:54:37;3.00;;;2.67;;
12892;SDS011;6514;48.606;9.222;2022-07-06T00:57:06;5.17;;;2.30;;
12892;SDS011;6514;48.606;9.222;2022-07-06T00:59:33;4.60;;;2.77;;
12892;SDS011;6514;48.606;9.222;2022-07-06T01:02:02;2.57;;;2.37;;
12892;SDS011;6514;48.606;9.222;2022-07-06T01:04:30;3.57;;;2.83;;
12892;SDS011;6514;48.606;9.222;2022-07-06T01:06:58;3.77;;;3.10;;
12892;SDS011;6514;48.606;9.222;2022-07-06T01:09:25;4.77;;;2.90;;
12892;SDS011;6514;48.606;9.222;2022-07-06T01:11:53;4.87;;;2.90;;
12892;SDS011;6514;48.606;9.222;2022-07-06T01:14:20;4.63;;;2.97;;
12892;SDS011;6514;48.606;9.222;2022-07-06T01:16:47;2.70;;;2.50;;
12892;SDS011;6514;48.606;9.222;2022-07-06T01:19:15;3.30;;;2.80;;
12892;SDS011;6514;48.606;9.222;2022-07-06T01:21:43;3.30;;;3.00;;
12892;SDS011;6514;48.606;9.222;2022-07-06T01:24:10;3.23;;;2.80;;
12892;SDS011;6514;48.606;9.222;2022-07-06T01:26:38;7.07;;;2.97;;
12892;SDS011;6514;48.606;9.222;2022-07-06T01:29:05;7.20;;;3.23;;
12892;SDS011;6514;48.606;9.222;2022-07-06T01:31:32;4.50;;;3.30;;
12892;SDS011;6514;48.606;9.222;2022-07-06T01:33:59;3.87;;;2.90;;
12892;SDS011;6514;48.606;9.222;2022-07-06T01:36:26;3.73;;;3.43;;
12892;SDS011;6514;48.606;9.222;2022-07-06T01:38:55;3.40;;;2.67;;
12892;SDS011;6514;48.606;9.222;2022-07-06T01:41:24;2.83;;;2.63;;
12892;SDS011;6514;48.606;9.222;2022-07-06T01:43:51;3.57;;;3.00;;
12892;SDS011;6514;48.606;9.222;2022-07-06T01:46:19;4.07;;;3.53;;
12892;SDS011;6514;48.606;9.222;2022-07-06T01:48:46;3.57;;;3.33;;
12892;SDS011;6514;48.606;9.222;2022-07-06T01:51:13;7.07;;;3.27;;
12892;SDS011;6514;48.606;9.222;2022-07-06T01:53:40;4.97;;;3.00;;
12892;SDS011;6514;48.606;9.222;2022-07-06T01:56:09;3.50;;;3.20;;
12892;SDS011;6514;48.606;9.222;2022-07-06T01:58:36;3.43;;;3.03;;
12892;SDS011;6514;48.606;9.222;2022-07-06T02:01:06;3.87;;;3.23;;
12892;SDS011;6514;48.606;9.222;2022-07-06T02:03:34;4.37;;;3.40;;
12892;SDS011;6514;48.606;9.222;2022-07-06T02:06:01;5.50;;;3.30;;
12892;SDS011;6514;48.606;9.222;2022-07-06T02:08:29;4.27;;;3.30;;
12892;SDS011;6514;48.606;9.222;2022-07-06T02:10:56;3.87;;;3.07;;
12892;SDS011;6514;48.606;9.222;2022-07-06T02:13:24;4.77;;;3.40;;
12892;SDS011;6514;48.606;9.222;2022-07-06T02:15:52;4.20;;;3.20;;
12892;SDS011;6514;48.606;9.222;2022-07-06T02:18:19;4.73;;;3.73;;
12892;SDS011;6514;48.606;9.222;2022-07-06T02:20:46;5.77;;;3.70;;
12892;SDS011;6514;48.606;9.222;2022-07-06T02:23:14;3.40;;;3.17;;
12892;SDS011;6514;48.606;9.222;2022-07-06T02:25:41;5.40;;;4.20;;
12892;SDS011;6514;48.606;9.222;2022-07-06T02:28:08;6.30;;;5.33;;
12892;SDS011;6514;48.606;9.222;2022-07-06T02:30:36;4.47;;;4.03;;
12892;SDS011;6514;48.606;9.222;2022-07-06T02:33:04;3.90;;;3.50;;
12892;SDS011;6514;48.606;9.222;2022-07-06T02:35:31;4.47;;;3.57;;
12892;SDS011;6514;48.606;9.222;2022-07-06T02:37:58;4.53;;;3.67;;
12892;SDS011;6514;48.606;9.222;2022-07-06T02:40:25;3.77;;;3.47;;
12892;SDS011;6514;48.606;9.222;2022-07-06T02:42:53;3.90;;;3.43;;
12892;SDS011;6514;48.606;9.222;2022-07-06T02:45:20;3.87;;;3.50;;
12892;SDS011;6514;48.606;9.222;2022-07-06T02:47:48;4.10;;;3.70;;
12892;SDS011;6514;48.606;9.222;2022-07-06T02:50:16;3.60;;;3.30;;
12892;SDS011;6514;48.606;9.222;2022-07-06T02:52:43;4.00;;;3.70;;
12892;SDS011;6514;48.606;9.222;2022-07-06T02:55:10;4.27;;;3.37;;
12892;SDS011;6514;48.606;9.222;2022-07-06T02:57:37;4.27;;;3.43;;
12892;SDS011;6514;48.606;9.222;2022-07-06T03:00:06;4.10;;;3.70;;
12892;SDS011;6514;48.606;9.222;2022-07-06T03:02:34;4.63;;;3.93;;
12892;SDS011;6514;48.606;9.222;2022-07-06T03:05:03;4.13;;;3.70;;
12892;SDS011;6514;48.606;9.222;2022-07-06T03:07:30;4.30;;;3.97;;
12892;SDS011;6514;48.606;9.222;2022-07-06T03:09:57;4.57;;;3.67;;
12892;SDS011;6514;48.606;9.222;2022-07-06T03:12:25;6.20;;;3.97;;
12892;SDS011;6514;48.606;9.222;2022-07-06T03:14:52;3.80;;;3.50;;
12892;SDS011;6514;48.606;9.222;2022-07-06T03:17:19;3.77;;;3.40;;
12892;SDS011;6514;48.606;9.222;2022-07-06T03:19:47;4.33;;;3.93;;
12892;SDS011;6514;48.606;9.222;2022-07-06T03:22:15;4.13;;;3.73;;
12892;SDS011;6514;48.606;9.222;2022-07-06T03:24:42;4.00;;;3.53;;
12892;SDS011;6514;48.606;9.222;2022-07-06T03:27:10;4.80;;;3.80;;
12892;SDS011;6514;48.606;9.222;2022-07-06T03:29:37;4.20;;;3.90;;
12892;SDS011;6514;48.606;9.222;2022-07-06T03:32:04;5.37;;;3.60;;
12892;SDS011;6514;48.606;9.222;2022-07-06T03:34:31;5.23;;;3.50;;
12892;SDS011;6514;48.606;9.222;2022-07-06T03:36:59;4.83;;;3.03;;
12892;SDS011;6514;48.606;9.222;2022-07-06T03:39:27;3.83;;;3.50;;
12892;SDS011;6514;48.606;9.222;2022-07-06T03:41:54;4.43;;;3.17;;
12892;SDS011;6514;48.606;9.222;2022-07-06T03:44:22;4.03;;;3.17;;
12892;SDS011;6514;48.606;9.222;2022-07-06T03:46:49;3.83;;;3.53;;
12892;SDS011;6514;48.606;9.222;2022-07-06T03:49:18;4.00;;;3.60;;
12892;SDS011;6514;48.606;9.222;2022-07-06T03:51:45;3.90;;;3.50;;
12892;SDS011;6514;48.606;9.222;2022-07-06T03:54:12;3.80;;;3.50;;
12892;SDS011;6514;48.606;9.222;2022-07-06T03:56:41;4.30;;;3.23;;
12892;SDS011;6514;48.606;9.222;2022-07-06T03:59:08;3.67;;;3.10;;
12892;SDS011;6514;48.606;9.222;2022-07-06T04:01:35;5.40;;;3.40;;
12892;SDS011;6514;48.606;9.222;2022-07-06T04:04:02;4.40;;;3.50;;
12892;SDS011;6514;48.606;9.222;2022-07-06T04:06:30;5.00;;;3.40;;
12892;SDS011;6514;48.606;9.222;2022-07-06T04:08:59;5.43;;;3.00;;
12892;SDS011;6514;48.606;9.222;2022-07-06T04:11:26;4.27;;;3.47;;
12892;SDS011;6514;48.606;9.222;2022-07-06T04:13:55;4.87;;;3.97;;
12892;SDS011;6514;48.606;9.222;2022-07-06T04:16:23;5.53;;;3.67;;
12892;SDS011;6514;48.606;9.222;2022-07-06T04:18:50;5.03;;;3.20;;
12892;SDS011;6514;48.606;9.222;2022-07-06T04:21:17;3.50;;;3.10;;
12892;SDS011;6514;48.606;9.222;2022-07-06T04:23:44;5.07;;;3.10;;
12892;SDS011;6514;48.606;9.222;2022-07-06T04:26:11;3.40;;;3.10;;
12892;SDS011;6514;48.606;9.222;2022-07-06T04:28:39;4.37;;;3.00;;
12892;SDS011;6514;48.606;9.222;2022-07-06T04:31:07;5.57;;;3.23;;
12892;SDS011;6514;48.606;9.222;2022-07-06T04:33:34;3.43;;;2.90;;
12892;SDS011;6514;48.606;9.222;2022-07-06T04:36:02;4.80;;;3.07;;
12892;SDS011;6514;48.606;9.222;2022-07-06T04:38:29;3.33;;;3.03;;
12892;SDS011;6514;48.606;9.222;2022-07-06T04:40:56;3.30;;;3.00;;
12892;SDS011;6514;48.606;9.222;2022-07-06T04:43:23;4.90;;;3.20;;
12892;SDS011;6514;48.606;9.222;2022-07-06T04:45:51;3.87;;;3.27;;
12892;SDS011;6514;48.606;9.222;2022-07-06T04:48:19;6.47;;;3.50;;
12892;SDS011;6514;48.606;9.222;2022-07-06T04:50:46;4.77;;;3.33;;
12892;SDS011;6514;48.606;9.222;2022-07-06T04:53:14;3.57;;;3.07;;
12892;SDS011;6514;48.606;9.222;2022-07-06T04:55:41;5.13;;;2.67;;
12892;SDS011;6514;48.606;9.222;2022-07-06T04:58:08;3.97;;;3.13;;
12892;SDS011;6514;48.606;9.222;2022-07-06T05:00:35;3.27;;;2.90;;
12892;SDS011;6514;48.606;9.222;2022-07-06T05:03:02;6.27;;;3.20;;
12892;SDS011;6514;48.606;9.222;2022-07-06T05:05:31;3.87;;;3.30;;
12892;SDS011;6514;48.606;9.222;2022-07-06T05:07:58;3.90;;;3.57;;
12892;SDS011;6514;48.606;9.222;2022-07-06T05:10:26;4.07;;;3.63;;
12892;SDS011;6514;48.606;9.222;2022-07-06T05:12:53;5.03;;;3.27;;
12892;SDS011;6514;48.606;9.222;2022-07-06T05:15:21;5.67;;;3.30;;
12892;SDS011;6514;48.606;9.222;2022-07-06T05:17:48;4.13;;;3.33;;
12892;SDS011;6514;48.606;9.222;2022-07-06T05:20:15;4.10;;;3.10;;
12892;SDS011;6514;48.606;9.222;2022-07-06T05:22:44;3.37;;;2.57;;
12892;SDS011;6514;48.606;9.222;2022-07-06T05:25:11;3.00;;;2.70;;
12892;SDS011;6514;48.606;9.222;2022-07-06T05:27:39;5.80;;;3.17;;
12892;SDS011;6514;48.606;9.222;2022-07-06T05:30:06;5.13;;;3.00;;
12892;SDS011;6514;48.606;9.222;2022-07-06T05:32:33;3.07;;;2.77;;
12892;SDS011;6514;48.606;9.222;2022-07-06T05:35:01;3.37;;;2.90;;
12892;SDS011;6514;48.606;9.222;2022-07-06T05:37:28;4.97;;;3.03;;
12892;SDS011;6514;48.606;9.222;2022-07-06T05:39:57;4.43;;;2.63;;
12892;SDS011;6514;48.606;9.222;2022-07-06T05:42:24;4.77;;;2.60;;
12892;SDS011;6514;48.606;9.222;2022-07-06T05:44:54;6.67;;;2.97;;
12892;SDS011;6514;48.606;9.222;2022-07-06T05:47:21;4.47;;;2.50;;
12892;SDS011;6514;48.606;9.222;2022-07-06T05:50:14;6.10;;;2.80;;
12892;SDS011;6514;48.606;9.222;2022-07-06T05:52:43;3.17;;;2.53;;
12892;SDS011;6514;48.606;9.222;2022-07-06T05:55:12;3.70;;;2.77;;
12892;SDS011;6514;48.606;9.222;2022-07-06T05:57:39;4.17;;;2.33;;
12892;SDS011;6514;48.606;9.222;2022-07-06T06:00:08;4.57;;;2.70;;
12892;SDS011;6514;48.606;9.222;2022-07-06T06:02:38;2.70;;;2.37;;
12892;SDS011;6514;48.606;9.222;2022-07-06T06:05:07;3.93;;;2.70;;
12892;SDS011;6514;48.606;9.222;2022-07-06T06:07:34;5.53;;;1.90;;
12892;SDS011;6514;48.606;9.222;2022-07-06T06:10:02;4.33;;;2.27;;
12892;SDS011;6514;48.606;9.222;2022-07-06T06:12:31;2.40;;;2.17;;
12892;SDS011;6514;48.606;9.222;2022-07-06T06:14:58;5.67;;;2.00;;
12892;SDS011;6514;48.606;9.222;2022-07-06T06:17:26;2.60;;;1.87;;
12892;SDS011;6514;48.606;9.222;2022-07-06T06:19:53;4.93;;;2.40;;
12892;SDS011;6514;48.606;9.222;2022-07-06T06:22:20;3.00;;;1.90;;
12892;SDS011;6514;48.606;9.222;2022-07-06T06:24:48;7.37;;;2.50;;
12892;SDS011;6514;48.606;9.222;2022-07-06T06:27:15;3.17;;;2.10;;
12892;SDS011;6514;48.606;9.222;2022-07-06T06:29:44;3.63;;;2.17;;
12892;SDS011;6514;48.606;9.222;2022-07-06T06:32:11;4.63;;;2.20;;
12892;SDS011;6514;48.606;9.222;2022-07-06T06:34:38;3.37;;;2.13;;
12892;SDS011;6514;48.606;9.222;2022-07-06T06:37:06;4.27;;;2.40;;
12892;SDS011;6514;48.606;9.222;2022-07-06T06:39:33;5.03;;;2.00;;
12892;SDS011;6514;48.606;9.222;2022-07-06T06:42:00;2.13;;;1.93;;
12892;SDS011;6514;48.606;9.222;2022-07-06T06:44:27;2.97;;;1.90;;
12892;SDS011;6514;48.606;9.222;2022-07-06T06:46:56;4.77;;;2.30;;
12892;SDS011;6514;48.606;9.222;2022-07-06T06:49:23;4.77;;;2.40;;
12892;SDS011;6514;48.606;9.222;2022-07-06T06:51:50;2.33;;;2.03;;
12892;SDS011;6514;48.606;9.222;2022-07-06T06:54:18;5.87;;;2.50;;
12892;SDS011;6514;48.606;9.222;2022-07-06T06:56:45;5.23;;;2.20;;
12892;SDS011;6514;48.606;9.222;2022-07-06T06:59:12;3.50;;;2.03;;
12892;SDS011;6514;48.606;9.222;2022-07-06T07:01:39;3.53;;;2.00;;
12892;SDS011;6514;48.606;9.222;2022-07-06T07:04:08;4.23;;;2.27;;
12892;SDS011;6514;48.606;9.222;2022-07-06T07:06:35;7.40;;;2.57;;
12892;SDS011;6514;48.606;9.222;2022-07-06T07:09:02;3.83;;;2.03;;
12892;SDS011;6514;48.606;9.222;2022-07-06T07:11:30;3.43;;;2.10;;
12892;SDS011;6514;48.606;9.222;2022-07-06T07:13:58;3.40;;;2.07;;
12892;SDS011;6514;48.606;9.222;2022-07-06T07:16:25;3.00;;;1.87;;
12892;SDS011;6514;48.606;9.222;2022-07-06T07:18:52;3.13;;;2.10;;
12892;SDS011;6514;48.606;9.222;2022-07-06T07:21:21;3.30;;;2.03;;
12892;SDS011;6514;48.606;9.222;2022-07-06T07:23:48;3.50;;;1.80;;
12892;SDS011;6514;48.606;9.222;2022-07-06T07:26:16;7.40;;;2.00;;
12892;SDS011;6514;48.606;9.222;2022-07-06T07:28:43;3.87;;;2.37;;
12892;SDS011;6514;48.606;9.222;2022-07-06T07:31:11;4.57;;;2.13;;
12892;SDS011;6514;48.606;9.222;2022-07-06T07:33:39;4.63;;;1.90;;
12892;SDS011;6514;48.606;9.222;2022-07-06T07:36:06;5.73;;;2.40;;
12892;SDS011;6514;48.606;9.222;2022-07-06T07:38:35;2.27;;;1.90;;
12892;SDS011;6514;48.606;9.222;2022-07-06T07:41:02;3.53;;;2.30;;
12892;SDS011;6514;48.606;9.222;2022-07-06T07:43:31;3.90;;;2.03;;
12892;SDS011;6514;48.606;9.222;2022-07-06T07:45:58;6.13;;;2.03;;
12892;SDS011;6514;48.606;9.222;2022-07-06T07:48:25;4.77;;;1.90;;
12892;SDS011;6514;48.606;9.222;2022-07-06T07:50:53;4.93;;;1.80;;
12892;SDS011;6514;48.606;9.222;2022-07-06T07:53:20;1.73;;;1.63;;
12892;SDS011;6514;48.606;9.222;2022-07-06T07:55:48;4.10;;;2.00;;
12892;SDS011;6514;48.606;9.222;2022-07-06T07:58:16;2.57;;;1.70;;
12892;SDS011;6514;48.606;9.222;2022-07-06T08:00:43;3.27;;;2.00;;
12892;SDS011;6514;48.606;9.222;2022-07-06T08:03:11;4.33;;;2.03;;
12892;SDS011;6514;48.606;9.222;2022-07-06T08:05:38;4.37;;;1.93;;
12892;SDS011;6514;48.606;9.222;2022-07-06T08:08:05;4.00;;;2.13;;
12892;SDS011;6514;48.606;9.222;2022-07-06T08:10:32;5.67;;;1.83;;
12892;SDS011;6514;48.606;9.222;2022-07-06T08:13:01;4.53;;;2.20;;
12892;SDS011;6514;48.606;9.222;2022-07-06T08:15:28;5.33;;;2.30;;
12892;SDS011;6514;48.606;9.222;2022-07-06T08:17:56;6.20;;;2.23;;
12892;SDS011;6514;48.606;9.222;2022-07-06T08:20:23;4.07;;;2.10;;
12892;SDS011;6514;48.606;9.222;2022-07-06T08:22:50;5.10;;;2.13;;
12892;SDS011;6514;48.606;9.222;2022-07-06T08:25:18;4.63;;;1.77;;
12892;SDS011;6514;48.606;9.222;2022-07-06T08:27:45;3.13;;;2.10;;
12892;SDS011;6514;48.606;9.222;2022-07-06T08:30:14;4.27;;;2.37;;
12892;SDS011;6514;48.606;9.222;2022-07-06T08:32:41;3.43;;;2.27;;
12892;SDS011;6514;48.606;9.222;2022-07-06T08:35:09;8.40;;;2.37;;
12892;SDS011;6514;48.606;9.222;2022-07-06T08:37:36;2.63;;;2.00;;
12892;SDS011;6514;48.606;9.222;2022-07-06T08:40:04;7.00;;;2.00;;
12892;SDS011;6514;48.606;9.222;2022-07-06T08:42:32;4.83;;;2.10;;
12892;SDS011;6514;48.606;9.222;2022-07-06T08:45:00;4.87;;;2.27;;
12892;SDS011;6514;48.606;9.222;2022-07-06T08:47:29;6.67;;;2.17;;
12892;SDS011;6514;48.606;9.222;2022-07-06T08:49:57;6.17;;;2.00;;
12892;SDS011;6514;48.606;9.222;2022-07-06T08:52:25;3.30;;;2.10;;
12892;SDS011;6514;48.606;9.222;2022-07-06T08:54:52;6.77;;;1.83;;
12892;SDS011;6514;48.606;9.222;2022-07-06T08:57:19;3.50;;;2.00;;
12892;SDS011;6514;48.606;9.222;2022-07-06T08:59:47;7.27;;;2.20;;
12892;SDS011;6514;48.606;9.222;2022-07-06T09:02:14;8.37;;;2.00;;
12892;SDS011;6514;48.606;9.222;2022-07-06T09:04:43;5.23;;;2.30;;
12892;SDS011;6514;48.606;9.222;2022-07-06T09:07:10;2.97;;;1.90;;
12892;SDS011;6514;48.606;9.222;2022-07-06T09:09:38;4.23;;;2.70;;
12892;SDS011;6514;48.606;9.222;2022-07-06T09:12:09;3.07;;;1.77;;
12892;SDS011;6514;48.606;9.222;2022-07-06T09:14:38;5.63;;;2.30;;
12892;SDS011;6514;48.606;9.222;2022-07-06T09:17:06;3.20;;;1.80;;
12892;SDS011;6514;48.606;9.222;2022-07-06T09:19:34;3.97;;;1.97;;
12892;SDS011;6514;48.606;9.222;2022-07-06T09:22:03;3.50;;;1.80;;
12892;SDS011;6514;48.606;9.222;2022-07-06T09:24:31;4.50;;;2.17;;
12892;SDS011;6514;48.606;9.222;2022-07-06T09:26:58;4.47;;;2.00;;
12892;SDS011;6514;48.606;9.222;2022-07-06T09:29:29;4.80;;;1.73;;
12892;SDS011;6514;48.606;9.222;2022-07-06T09:31:57;5.77;;;1.73;;
12892;SDS011;6514;48.606;9.222;2022-07-06T09:34:24;3.80;;;1.80;;
12892;SDS011;6514;48.606;9.222;2022-07-06T09:36:52;10.57;;;2.63;;
12892;SDS011;6514;48.606;9.222;2022-07-06T09:39:21;2.67;;;1.90;;
12892;SDS011;6514;48.606;9.222;2022-07-06T09:41:50;4.17;;;1.90;;
12892;SDS011;6514;48.606;9.222;2022-07-06T09:44:21;4.17;;;1.97;;
12892;SDS011;6514;48.606;9.222;2022-07-06T09:46:49;3.73;;;1.90;;
12892;SDS011;6514;48.606;9.222;2022-07-06T09:49:16;3.30;;;2.00;;
12892;SDS011;6514;48.606;9.222;2022-07-06T09:51:44;4.60;;;1.73;;
12892;SDS011;6514;48.606;9.222;2022-07-06T09:54:12;4.63;;;1.70;;
12892;SDS011;6514;48.606;9.222;2022-07-06T09:56:42;3.50;;;1.60;;
12892;SDS011;6514;48.606;9.222;2022-07-06T09:59:09;3.97;;;2.50;;
12892;SDS011;6514;48.606;9.222;2022-07-06T10:01:37;5.37;;;2.23;;
12892;SDS011;6514;48.606;9.222;2022-07-06T10:04:04;4.00;;;1.90;;
12892;SDS011;6514;48.606;9.222;2022-07-06T10:06:32;5.17;;;1.83;;
12892;SDS011;6514;48.606;9.222;2022-07-06T10:08:59;3.47;;;2.27;;
12892;SDS011;6514;48.606;9.222;2022-07-06T10:11:27;5.13;;;2.20;;
12892;SDS011;6514;48.606;9.222;2022-07-06T10:13:57;2.30;;;1.53;;
12892;SDS011;6514;48.606;9.222;2022-07-06T10:16:25;7.20;;;2.00;;
12892;SDS011;6514;48.606;9.222;2022-07-06T10:18:52;4.50;;;1.80;;
12892;SDS011;6514;48.606;9.222;2022-07-06T10:21:20;3.90;;;1.60;;
12892;SDS011;6514;48.606;9.222;2022-07-06T10:23:47;2.27;;;1.60;;
12892;SDS011;6514;48.606;9.222;2022-07-06T10:26:16;4.83;;;1.93;;
12892;SDS011;6514;48.606;9.222;2022-07-06T10:28:43;4.50;;;2.23;;
12892;SDS011;6514;48.606;9.222;2022-07-06T10:31:13;4.30;;;1.90;;
12892;SDS011;6514;48.606;9.222;2022-07-06T10:33:41;4.30;;;1.70;;
12892;SDS011;6514;48.606;9.222;2022-07-06T10:36:09;3.00;;;2.10;;
12892;SDS011;6514;48.606;9.222;2022-07-06T10:38:36;3.50;;;2.00;;
12892;SDS011;6514;48.606;9.222;2022-07-06T10:41:05;2.43;;;1.77;;
12892;SDS011;6514;48.606;9.222;2022-07-06T10:43:32;2.40;;;1.80;;
12892;SDS011;6514;48.606;9.222;2022-07-06T10:46:04;3.10;;;1.93;;
12892;SDS011;6514;48.606;9.222;2022-07-06T10:48:35;4.70;;;2.80;;
12892;SDS011;6514;48.606;9.222;2022-07-06T10:51:03;3.77;;;1.67;;
12892;SDS011;6514;48.606;9.222;2022-07-06T10:53:32;3.53;;;2.10;;
12892;SDS011;6514;48.606;9.222;2022-07-06T10:56:00;6.30;;;1.90;;
12892;SDS011;6514;48.606;9.222;2022-07-06T10:58:34;3.00;;;1.80;;
12892;SDS011;6514;48.606;9.222;2022-07-06T11:01:02;2.87;;;1.53;;
12892;SDS011;6514;48.606;9.222;2022-07-06T11:03:36;3.23;;;1.60;;
12892;SDS011;6514;48.606;9.222;2022-07-06T11:06:08;3.03;;;1.60;;
12892;SDS011;6514;48.606;9.222;2022-07-06T11:08:43;3.30;;;1.70;;
12892;SDS011;6514;48.606;9.222;2022-07-06T11:11:11;3.87;;;2.03;;
12892;SDS011;6514;48.606;9.222;2022-07-06T11:13:43;5.33;;;1.90;;
12892;SDS011;6514;48.606;9.222;2022-07-06T11:16:10;6.13;;;2.00;;
12892;SDS011;6514;48.606;9.222;2022-07-06T11:18:42;5.73;;;2.07;;
12892;SDS011;6514;48.606;9.222;2022-07-06T11:21:19;5.17;;;2.13;;
12892;SDS011;6514;48.606;9.222;2022-07-06T11:23:48;2.50;;;1.70;;
12892;SDS011;6514;48.606;9.222;2022-07-06T11:26:15;7.47;;;1.80;;
12892;SDS011;6514;48.606;9.222;2022-07-06T11:28:44;2.67;;;1.63;;
12892;SDS011;6514;48.606;9.222;2022-07-06T11:31:12;7.47;;;1.80;;
12892;SDS011;6514;48.606;9.222;2022-07-06T11:33:39;2.93;;;1.70;;
12892;SDS011;6514;48.606;9.222;2022-07-06T11:36:14;4.63;;;2.10;;
12892;SDS011;6514;48.606;9.222;2022-07-06T11:38:43;5.33;;;1.90;;
12892;SDS011;6514;48.606;9.222;2022-07-06T11:41:13;5.03;;;1.57;;
12892;SDS011;6514;48.606;9.222;2022-07-06T11:43:41;3.07;;;1.70;;
12892;SDS011;6514;48.606;9.222;2022-07-06T11:46:18;4.50;;;2.00;;
12892;SDS011;6514;48.606;9.222;2022-07-06T11:48:46;3.97;;;1.63;;
12892;SDS011;6514;48.606;9.222;2022-07-06T11:51:14;4.37;;;1.80;;
12892;SDS011;6514;48.606;9.222;2022-07-06T11:53:43;8.87;;;1.80;;
12892;SDS011;6514;48.606;9.222;2022-07-06T11:56:10;4.30;;;1.70;;
12892;SDS011;6514;48.606;9.222;2022-07-06T11:58:39;5.40;;;2.70;;
12892;SDS011;6514;48.606;9.222;2022-07-06T12:01:08;5.57;;;2.43;;
12892;SDS011;6514;48.606;9.222;2022-07-06T12:03:35;4.73;;;2.37;;
12892;SDS011;6514;48.606;9.222;2022-07-06T12:06:03;3.27;;;1.67;;
12892;SDS011;6514;48.606;9.222;2022-07-06T12:08:32;5.63;;;1.97;;
12892;SDS011;6514;48.606;9.222;2022-07-06T12:10:59;5.17;;;1.80;;
12892;SDS011;6514;48.606;9.222;2022-07-06T12:13:27;4.23;;;2.00;;
12892;SDS011;6514;48.606;9.222;2022-07-06T12:15:54;3.40;;;1.97;;
12892;SDS011;6514;48.606;9.222;2022-07-06T12:18:35;10.33;;;2.47;;
12892;SDS011;6514;48.606;9.222;2022-07-06T12:21:02;4.20;;;2.00;;
12892;SDS011;6514;48.606;9.222;2022-07-06T12:23:38;4.47;;;2.43;;
12892;SDS011;6514;48.606;9.222;2022-07-06T12:26:06;6.13;;;2.40;;
12892;SDS011;6514;48.606;9.222;2022-07-06T12:28:33;9.17;;;2.83;;
12892;SDS011;6514;48.606;9.222;2022-07-06T12:31:00;5.87;;;2.00;;
12892;SDS011;6514;48.606;9.222;2022-07-06T12:33:28;3.10;;;1.80;;
12892;SDS011;6514;48.606;9.222;2022-07-06T12:35:55;4.43;;;2.13;;
12892;SDS011;6514;48.606;9.222;2022-07-06T12:38:22;4.20;;;2.30;;
12892;SDS011;6514;48.606;9.222;2022-07-06T12:40:51;3.43;;;1.87;;
12892;SDS011;6514;48.606;9.222;2022-07-06T12:43:37;3.27;;;2.07;;
12892;SDS011;6514;48.606;9.222;2022-07-06T12:48:51;4.10;;;2.40;;
12892;SDS011;6514;48.606;9.222;2022-07-06T12:51:18;14.80;;;3.07;;
12892;SDS011;6514;48.606;9.222;2022-07-06T12:53:45;4.17;;;2.70;;
12892;SDS011;6514;48.606;9.222;2022-07-06T12:56:14;4.03;;;2.40;;
12892;SDS011;6514;48.606;9.222;2022-07-06T12:58:54;5.77;;;2.73;;
12892;SDS011;6514;48.606;9.222;2022-07-06T13:01:21;8.30;;;2.50;;
12892;SDS011;6514;48.606;9.222;2022-07-06T13:03:51;3.77;;;2.20;;
12892;SDS011;6514;48.606;9.222;2022-07-06T13:06:26;6.13;;;2.50;;
12892;SDS011;6514;48.606;9.222;2022-07-06T13:08:53;4.53;;;2.10;;
12892;SDS011;6514;48.606;9.222;2022-07-06T13:11:22;3.87;;;2.30;;
12892;SDS011;6514;48.606;9.222;2022-07-06T13:13:49;3.23;;;2.40;;
12892;SDS011;6514;48.606;9.222;2022-07-06T13:16:16;4.50;;;2.67;;
12892;SDS011;6514;48.606;9.222;2022-07-06T13:18:44;4.73;;;2.70;;
12892;SDS011;6514;48.606;9.222;2022-07-06T13:21:11;3.80;;;2.10;;
12892;SDS011;6514;48.606;9.222;2022-07-06T13:23:38;13.07;;;3.03;;
12892;SDS011;6514;48.606;9.222;2022-07-06T13:26:06;5.77;;;1.90;;
12892;SDS011;6514;48.606;9.222;2022-07-06T13:28:34;5.43;;;2.33;;
12892;SDS011;6514;48.606;9.222;2022-07-06T13:31:02;5.03;;;2.60;;
12892;SDS011;6514;48.606;9.222;2022-07-06T13:33:29;5.90;;;2.30;;
12892;SDS011;6514;48.606;9.222;2022-07-06T13:35:56;5.13;;;2.27;;
12892;SDS011;6514;48.606;9.222;2022-07-06T13:38:23;7.63;;;2.20;;
12892;SDS011;6514;48.606;9.222;2022-07-06T13:40:50;6.57;;;2.30;;
12892;SDS011;6514;48.606;9.222;2022-07-06T13:43:18;5.27;;;2.53;;
12892;SDS011;6514;48.606;9.222;2022-07-06T13:45:46;4.03;;;1.93;;
12892;SDS011;6514;48.606;9.222;2022-07-06T13:48:14;3.77;;;2.23;;
12892;SDS011;6514;48.606;9.222;2022-07-06T13:50:41;2.20;;;1.60;;
12892;SDS011;6514;48.606;9.222;2022-07-06T13:53:08;3.80;;;1.60;;
12892;SDS011;6514;48.606;9.222;2022-07-06T13:55:35;5.50;;;2.07;;
12892;SDS011;6514;48.606;9.222;2022-07-06T13:58:03;3.40;;;1.73;;
12892;SDS011;6514;48.606;9.222;2022-07-06T14:00:30;5.17;;;2.10;;
12892;SDS011;6514;48.606;9.222;2022-07-06T14:02:59;3.03;;;1.80;;
12892;SDS011;6514;48.606;9.222;2022-07-06T14:05:27;4.17;;;1.70;;
12892;SDS011;6514;48.606;9.222;2022-07-06T14:07:55;5.40;;;2.00;;
12892;SDS011;6514;48.606;9.222;2022-07-06T14:10:22;4.03;;;1.53;;
12892;SDS011;6514;48.606;9.222;2022-07-06T14:12:50;3.53;;;1.80;;
12892;SDS011;6514;48.606;9.222;2022-07-06T14:15:17;4.50;;;1.93;;
12892;SDS011;6514;48.606;9.222;2022-07-06T14:17:46;2.83;;;1.60;;
12892;SDS011;6514;48.606;9.222;2022-07-06T14:20:15;5.73;;;2.00;;
12892;SDS011;6514;48.606;9.222;2022-07-06T14:22:44;2.20;;;1.77;;
12892;SDS011;6514;48.606;9.222;2022-07-06T14:25:11;4.43;;;1.83;;
12892;SDS011;6514;48.606;9.222;2022-07-06T14:27:39;3.40;;;1.53;;
12892;SDS011;6514;48.606;9.222;2022-07-06T14:30:07;7.73;;;2.37;;
12892;SDS011;6514;48.606;9.222;2022-07-06T14:32:34;7.27;;;1.90;;
12892;SDS011;6514;48.606;9.222;2022-07-06T14:35:02;4.90;;;2.43;;
12892;SDS011;6514;48.606;9.222;2022-07-06T14:37:30;3.27;;;2.00;;
12892;SDS011;6514;48.606;9.222;2022-07-06T14:39:57;5.07;;;2.00;;
12892;SDS011;6514;48.606;9.222;2022-07-06T14:42:25;4.43;;;2.17;;
12892;SDS011;6514;48.606;9.222;2022-07-06T14:44:52;3.40;;;1.93;;
12892;SDS011;6514;48.606;9.222;2022-07-06T14:47:19;3.80;;;2.20;;
12892;SDS011;6514;48.606;9.222;2022-07-06T14:49:46;3.10;;;1.83;;
12892;SDS011;6514;48.606;9.222;2022-07-06T14:52:15;2.00;;;1.63;;
12892;SDS011;6514;48.606;9.222;2022-07-06T14:54:44;4.17;;;1.60;;
12892;SDS011;6514;48.606;9.222;2022-07-06T14:57:11;3.43;;;1.60;;
12892;SDS011;6514;48.606;9.222;2022-07-06T14:59:38;7.30;;;1.90;;
12892;SDS011;6514;48.606;9.222;2022-07-06T15:02:06;3.10;;;1.50;;
12892;SDS011;6514;48.606;9.222;2022-07-06T15:04:33;5.10;;;1.63;;
12892;SDS011;6514;48.606;9.222;2022-07-06T15:07:00;4.20;;;1.50;;